Time;durP1;ratioP1;P1;durP2;ratioP2;P2;SDS_P1;SDS_P2;PMS_P1;PMS_P2;Temp;Humidity;BMP_temperature;BMP_pressure;BME280_temperature;BME280_humidity;BME280_pressure;Samples;Min_cycle;Max_cycle;Signal;HPM_P1;HPM_P2
2024/01/19 00:02:03;;;;;;;4.30;3.17;;;;;;;;;;5054790;28;20255;-87
2024/01/19 00:04:39;;;;;;;6.83;3.60;;;;;;;;;;5052755;28;20303;-86
2024/01/19 00:07:32;;;;;;;6.90;4.43;;;;;;;;;;5061552;28;20226;-87
2024/01/19 00:13:05;;;;;;;6.93;4.50;;;;;;;;;;5049950;28;20239;-86
2024/01/19 00:15:52;;;;;;;6.27;4.87;;;;;;;;;;5065209;28;20230;-87
2024/01/19 00:18:33;;;;;;;7.57;4.00;;;;;;;;;;5054438;28;20226;-86
2024/01/19 00:21:12;;;;;;;6.13;5.00;;;;;;;;;;5059523;28;20214;-86
2024/01/19 00:23:49;;;;;;;6.70;4.80;;;;;;;;;;5064595;28;20303;-86
2024/01/19 00:26:33;;;;;;;10.10;5.73;;;;;;;;;;5063291;28;20207;-87
2024/01/19 00:29:07;;;;;;;8.27;5.70;;;;;;;;;;5054247;28;20227;-88
2024/01/19 00:31:47;;;;;;;8.13;5.97;;;;;;;;;;5066422;28;20640;-87
2024/01/19 00:34:34;;;;;;;8.77;5.53;;;;;;;;;;5065477;28;20199;-86
2024/01/19 00:37:09;;;;;;;8.00;6.17;;;;;;;;;;5062161;28;20200;-87
2024/01/19 00:39:54;;;;;;;8.63;5.63;;;;;;;;;;5061709;28;20221;-89
2024/01/19 00:42:29;;;;;;;6.10;5.07;;;;;;;;;;5060598;28;20196;-87
2024/01/19 00:45:01;;;;;;;6.87;4.73;;;;;;;;;;5051518;28;20241;-86
2024/01/19 00:47:35;;;;;;;6.67;5.80;;;;;;;;;;5064707;28;20202;-86
2024/01/19 00:50:11;;;;;;;8.77;5.23;;;;;;;;;;5061294;28;20290;-85
2024/01/19 00:52:43;;;;;;;8.50;5.83;;;;;;;;;;5051708;28;20227;-86
2024/01/19 00:55:18;;;;;;;8.00;4.87;;;;;;;;;;5059972;28;20235;-86
2024/01/19 01:00:40;;;;;;;4.73;4.33;;;;;;;;;;5032144;28;20192;-87
2024/01/19 01:03:09;;;;;;;4.80;3.73;;;;;;;;;;5061831;28;20193;-85
2024/01/19 01:05:38;;;;;;;5.37;4.40;;;;;;;;;;5041735;28;20200;-86
2024/01/19 01:08:05;;;;;;;4.70;4.10;;;;;;;;;;5042810;28;20215;-87
2024/01/19 01:10:35;;;;;;;4.40;3.60;;;;;;;;;;5048134;28;20202;-86
2024/01/19 01:13:10;;;;;;;7.57;5.43;;;;;;;;;;5040236;28;20375;-86
2024/01/19 01:15:38;;;;;;;10.70;6.47;;;;;;;;;;5049298;28;20199;-86
2024/01/19 01:18:17;;;;;;;5.13;4.63;;;;;;;;;;5052220;28;20218;-87
2024/01/19 01:20:45;;;;;;;11.13;4.50;;;;;;;;;;5049725;28;20214;-87
2024/01/19 01:23:14;;;;;;;5.23;3.97;;;;;;;;;;5052322;28;20223;-87
2024/01/19 01:25:45;;;;;;;6.17;3.90;;;;;;;;;;5043351;28;20188;-86
2024/01/19 01:28:14;;;;;;;6.60;4.03;;;;;;;;;;5041968;28;20192;-86
2024/01/19 01:30:41;;;;;;;5.90;3.87;;;;;;;;;;5039323;28;20334;-86
2024/01/19 01:33:11;;;;;;;6.47;3.77;;;;;;;;;;5045677;28;20231;-85
2024/01/19 01:35:39;;;;;;;4.83;4.43;;;;;;;;;;5051490;28;20188;-86
2024/01/19 01:38:07;;;;;;;4.97;3.93;;;;;;;;;;5038622;28;20200;-86
2024/01/19 01:40:39;;;;;;;4.23;3.83;;;;;;;;;;5033497;28;20200;-85
2024/01/19 01:43:06;;;;;;;5.93;4.13;;;;;;;;;;5037983;28;20195;-86
2024/01/19 01:45:38;;;;;;;3.93;3.40;;;;;;;;;;5033274;28;20226;-84
2024/01/19 01:48:07;;;;;;;5.90;4.30;;;;;;;;;;5033708;28;20206;-85
2024/01/19 01:50:34;;;;;;;6.47;4.07;;;;;;;;;;5034330;28;20249;-86
2024/01/19 01:53:02;;;;;;;3.80;3.50;;;;;;;;;;5032302;28;20239;-86
2024/01/19 01:55:29;;;;;;;5.03;4.23;;;;;;;;;;5031830;28;20232;-86
2024/01/19 01:57:57;;;;;;;4.70;3.20;;;;;;;;;;5034063;28;20203;-85
2024/01/19 02:00:25;;;;;;;4.43;4.03;;;;;;;;;;5032973;28;20629;-87
2024/01/19 02:02:57;;;;;;;6.40;4.00;;;;;;;;;;5033315;28;20196;-86
2024/01/19 02:05:24;;;;;;;5.40;4.07;;;;;;;;;;5033982;28;20246;-86
2024/01/19 02:07:51;;;;;;;5.03;3.80;;;;;;;;;;5031431;28;20313;-86
2024/01/19 02:10:19;;;;;;;3.50;2.97;;;;;;;;;;5031615;28;20226;-86
2024/01/19 02:12:52;;;;;;;7.03;2.80;;;;;;;;;;5029920;28;20208;-84
2024/01/19 02:15:21;;;;;;;3.60;3.20;;;;;;;;;;5033188;28;20204;-85
2024/01/19 02:17:49;;;;;;;4.40;4.00;;;;;;;;;;5031588;28;20278;-85
2024/01/19 02:20:19;;;;;;;3.60;3.30;;;;;;;;;;5035454;28;20531;-86
2024/01/19 02:22:49;;;;;;;5.30;3.53;;;;;;;;;;5033752;28;20199;-86
2024/01/19 02:25:20;;;;;;;5.20;4.03;;;;;;;;;;5033347;28;20291;-86
2024/01/19 02:28:06;;;;;;;3.33;2.93;;;;;;;;;;5033372;28;20204;-85
2024/01/19 02:30:34;;;;;;;3.13;2.93;;;;;;;;;;5032959;28;20200;-84
2024/01/19 02:33:02;;;;;;;8.43;3.50;;;;;;;;;;5030869;28;20626;-85
2024/01/19 02:35:32;;;;;;;6.30;3.60;;;;;;;;;;5028580;28;20216;-86
2024/01/19 02:38:00;;;;;;;4.00;3.23;;;;;;;;;;5013257;28;20205;-84
2024/01/19 02:40:29;;;;;;;5.00;2.93;;;;;;;;;;5031733;28;20553;-84
2024/01/19 02:42:56;;;;;;;4.07;3.20;;;;;;;;;;5033446;28;20214;-85
2024/01/19 02:45:23;;;;;;;5.20;3.73;;;;;;;;;;5030313;28;20214;-85
2024/01/19 02:47:50;;;;;;;3.97;3.60;;;;;;;;;;5032005;28;20218;-85
2024/01/19 02:50:18;;;;;;;5.63;3.30;;;;;;;;;;5031070;28;20230;-85
2024/01/19 02:52:48;;;;;;;2.70;2.50;;;;;;;;;;5032165;28;20223;-85
2024/01/19 02:55:15;;;;;;;2.73;2.53;;;;;;;;;;5038444;28;20226;-86
2024/01/19 02:57:46;;;;;;;3.90;3.47;;;;;;;;;;5047065;28;20203;-85
2024/01/19 03:00:14;;;;;;;3.10;2.87;;;;;;;;;;5044295;28;20257;-85
2024/01/19 03:05:31;;;;;;;6.37;3.83;;;;;;;;;;5029015;28;20613;-84
2024/01/19 03:08:00;;;;;;;4.10;3.70;;;;;;;;;;5040902;28;20215;-84
2024/01/19 03:10:28;;;;;;;3.47;2.50;;;;;;;;;;5049969;28;20291;-83
2024/01/19 03:12:57;;;;;;;3.17;2.60;;;;;;;;;;5058884;28;20223;-85
2024/01/19 03:15:32;;;;;;;3.23;2.93;;;;;;;;;;5052005;28;20200;-85
2024/01/19 03:18:04;;;;;;;6.37;2.57;;;;;;;;;;5035932;28;20647;-85
2024/01/19 03:20:32;;;;;;;4.27;3.10;;;;;;;;;;5036291;28;20478;-85
2024/01/19 03:23:00;;;;;;;2.60;1.80;;;;;;;;;;5045327;28;20200;-85
2024/01/19 03:25:27;;;;;;;2.20;2.10;;;;;;;;;;5036045;28;20560;-86
2024/01/19 03:27:54;;;;;;;3.90;3.67;;;;;;;;;;5037197;28;20275;-85
2024/01/19 03:30:23;;;;;;;2.97;2.77;;;;;;;;;;5037754;28;20204;-86
2024/01/19 03:32:52;;;;;;;2.00;1.90;;;;;;;;;;5042482;28;20239;-85
2024/01/19 03:35:22;;;;;;;2.40;2.30;;;;;;;;;;5050377;28;20196;-85
2024/01/19 03:37:49;;;;;;;2.50;2.30;;;;;;;;;;5044284;28;20204;-85
2024/01/19 03:40:20;;;;;;;2.43;2.23;;;;;;;;;;5048826;28;20204;-85
2024/01/19 03:42:50;;;;;;;3.23;1.93;;;;;;;;;;5051847;28;20264;-84
2024/01/19 03:45:17;;;;;;;2.50;2.30;;;;;;;;;;5052162;28;20227;-84
2024/01/19 03:47:48;;;;;;;2.53;2.33;;;;;;;;;;5052923;28;20254;-85
2024/01/19 03:50:16;;;;;;;1.83;1.57;;;;;;;;;;5066934;28;20195;-85
2024/01/19 03:52:44;;;;;;;4.53;2.43;;;;;;;;;;5073635;28;20219;-85
2024/01/19 03:55:20;;;;;;;3.13;2.73;;;;;;;;;;5073993;28;20231;-85
2024/01/19 03:57:48;;;;;;;2.57;2.40;;;;;;;;;;5073420;28;20201;-85
2024/01/19 04:00:26;;;;;;;3.17;2.97;;;;;;;;;;5074545;28;20198;-84
2024/01/19 04:02:56;;;;;;;3.97;3.10;;;;;;;;;;5067138;28;20188;-84
2024/01/19 04:05:28;;;;;;;3.63;3.13;;;;;;;;;;5071985;28;20218;-84
2024/01/19 04:07:56;;;;;;;2.57;2.37;;;;;;;;;;5067839;28;20199;-84
2024/01/19 04:10:25;;;;;;;3.87;3.03;;;;;;;;;;5065150;28;20217;-83
2024/01/19 04:12:52;;;;;;;3.07;2.87;;;;;;;;;;5066968;28;20283;-84
2024/01/19 04:15:19;;;;;;;2.17;2.07;;;;;;;;;;5061015;28;20203;-84
2024/01/19 04:17:58;;;;;;;1.60;1.50;;;;;;;;;;5048924;28;20270;-85
2024/01/19 04:20:35;;;;;;;2.63;2.43;;;;;;;;;;5035755;28;20204;-85
2024/01/19 04:23:05;;;;;;;1.63;1.47;;;;;;;;;;5034878;28;20231;-86
2024/01/19 04:25:32;;;;;;;3.63;2.20;;;;;;;;;;5034577;28;20619;-86
2024/01/19 04:28:00;;;;;;;2.33;2.13;;;;;;;;;;5033868;28;20200;-85
2024/01/19 04:30:30;;;;;;;2.90;1.47;;;;;;;;;;5034786;28;20195;-86
2024/01/19 04:32:59;;;;;;;3.03;1.97;;;;;;;;;;5035087;28;20203;-86
2024/01/19 04:35:28;;;;;;;1.53;1.43;;;;;;;;;;5035060;28;20199;-84
2024/01/19 04:38:02;;;;;;;1.60;1.50;;;;;;;;;;5036753;28;20643;-86
2024/01/19 04:40:30;;;;;;;1.50;1.40;;;;;;;;;;5035738;28;20192;-85
2024/01/19 04:43:03;;;;;;;1.80;1.43;;;;;;;;;;5034055;28;20207;-85
2024/01/19 04:45:32;;;;;;;2.10;2.00;;;;;;;;;;5035429;28;20203;-86
2024/01/19 04:48:01;;;;;;;1.73;1.63;;;;;;;;;;5043206;28;20215;-85
2024/01/19 04:50:35;;;;;;;2.57;2.40;;;;;;;;;;5054635;28;20199;-85
2024/01/19 04:53:02;;;;;;;1.80;1.70;;;;;;;;;;5056137;28;20196;-85
2024/01/19 04:55:29;;;;;;;4.20;1.93;;;;;;;;;;5053034;28;20249;-86
2024/01/19 04:57:57;;;;;;;2.43;2.00;;;;;;;;;;5054852;28;20566;-85
2024/01/19 05:00:31;;;;;;;1.30;1.20;;;;;;;;;;5059883;28;20644;-85
2024/01/19 05:03:00;;;;;;;2.00;1.60;;;;;;;;;;5058616;28;20660;-86
2024/01/19 05:05:29;;;;;;;2.70;2.47;;;;;;;;;;5059077;28;20242;-85
2024/01/19 05:08:00;;;;;;;1.93;1.83;;;;;;;;;;5059320;28;20211;-85
2024/01/19 05:10:31;;;;;;;3.83;1.60;;;;;;;;;;5056852;28;20195;-84
2024/01/19 05:12:59;;;;;;;2.27;1.60;;;;;;;;;;5055164;28;20602;-86
2024/01/19 05:15:28;;;;;;;3.83;2.20;;;;;;;;;;5054647;28;20601;-85
2024/01/19 05:18:00;;;;;;;2.80;2.60;;;;;;;;;;5053593;28;20649;-86
2024/01/19 05:20:29;;;;;;;1.97;1.77;;;;;;;;;;5054023;28;20207;-85
2024/01/19 05:22:59;;;;;;;4.27;1.87;;;;;;;;;;5053194;28;20199;-85
2024/01/19 05:25:27;;;;;;;1.93;1.67;;;;;;;;;;5055466;28;20199;-86
2024/01/19 05:27:55;;;;;;;4.40;1.67;;;;;;;;;;5052966;28;20286;-86
2024/01/19 05:30:22;;;;;;;9.60;3.30;;;;;;;;;;5053188;28;20253;-85
2024/01/19 05:32:50;;;;;;;4.00;2.10;;;;;;;;;;5052656;28;20209;-86
2024/01/19 05:35:17;;;;;;;3.77;3.10;;;;;;;;;;5053454;28;20719;-85
2024/01/19 05:37:45;;;;;;;4.90;3.37;;;;;;;;;;5053495;28;20199;-86
2024/01/19 05:40:15;;;;;;;4.70;3.60;;;;;;;;;;5053217;28;20207;-84
2024/01/19 05:42:42;;;;;;;8.17;7.33;;;;;;;;;;5054326;28;20207;-86
2024/01/19 05:45:13;;;;;;;11.63;8.10;;;;;;;;;;5054630;28;20676;-86
2024/01/19 05:47:41;;;;;;;3.60;3.40;;;;;;;;;;5053832;28;20286;-85
2024/01/19 05:50:11;;;;;;;3.73;3.43;;;;;;;;;;5053382;28;20278;-86
2024/01/19 05:52:39;;;;;;;3.50;3.20;;;;;;;;;;5053622;28;20195;-85
2024/01/19 05:55:07;;;;;;;3.60;3.07;;;;;;;;;;5053711;28;20239;-85
2024/01/19 05:57:36;;;;;;;2.77;2.60;;;;;;;;;;5053393;28;20282;-86
2024/01/19 06:00:07;;;;;;;3.47;3.17;;;;;;;;;;5052533;28;20196;-86
2024/01/19 06:02:36;;;;;;;2.97;2.83;;;;;;;;;;5053590;28;20284;-85
2024/01/19 06:05:04;;;;;;;2.50;2.30;;;;;;;;;;5053510;28;20663;-87
2024/01/19 06:07:32;;;;;;;4.37;3.07;;;;;;;;;;5054999;28;20200;-85
2024/01/19 06:09:59;;;;;;;3.83;3.07;;;;;;;;;;5056292;28;20219;-86
2024/01/19 06:12:27;;;;;;;3.63;3.20;;;;;;;;;;5057429;28;20255;-85
2024/01/19 06:14:57;;;;;;;4.03;2.87;;;;;;;;;;5058079;28;20227;-85
2024/01/19 06:17:26;;;;;;;3.70;3.37;;;;;;;;;;5068320;28;20199;-85
2024/01/19 06:19:55;;;;;;;3.10;2.87;;;;;;;;;;5070403;28;20202;-85
2024/01/19 06:22:22;;;;;;;3.23;2.90;;;;;;;;;;5059425;28;20186;-85
2024/01/19 06:24:50;;;;;;;3.23;3.03;;;;;;;;;;5053645;28;20196;-85
2024/01/19 06:27:22;;;;;;;6.60;2.77;;;;;;;;;;5053325;28;20195;-85
2024/01/19 06:29:49;;;;;;;4.63;3.53;;;;;;;;;;5053648;28;20607;-85
2024/01/19 06:32:20;;;;;;;3.53;3.27;;;;;;;;;;5052276;28;20204;-86
2024/01/19 06:34:48;;;;;;;3.93;3.63;;;;;;;;;;5051630;28;20297;-86
2024/01/19 06:37:21;;;;;;;5.53;3.43;;;;;;;;;;5053084;28;20204;-86
2024/01/19 06:39:54;;;;;;;5.43;4.10;;;;;;;;;;5053071;28;20221;-86
2024/01/19 06:42:26;;;;;;;6.67;4.60;;;;;;;;;;5052847;28;20637;-86
2024/01/19 06:44:54;;;;;;;4.97;3.53;;;;;;;;;;5052262;28;20203;-86
2024/01/19 06:47:26;;;;;;;3.37;3.07;;;;;;;;;;5053611;28;20207;-86
2024/01/19 06:49:56;;;;;;;4.60;3.63;;;;;;;;;;5052943;28;20584;-85
2024/01/19 06:52:23;;;;;;;7.73;5.60;;;;;;;;;;5053113;28;20199;-85
2024/01/19 06:54:55;;;;;;;4.60;4.30;;;;;;;;;;5052192;28;20243;-85
2024/01/19 06:57:27;;;;;;;4.40;3.77;;;;;;;;;;5051915;28;20204;-85
2024/01/19 06:59:58;;;;;;;5.33;4.03;;;;;;;;;;5053045;28;20194;-86
2024/01/19 07:03:01;;;;;;;4.63;4.20;;;;;;;;;;5055515;28;20192;-85
2024/01/19 07:05:30;;;;;;;10.00;6.07;;;;;;;;;;5035658;28;20199;-85
2024/01/19 07:08:02;;;;;;;11.13;6.87;;;;;;;;;;5054500;28;20207;-85
2024/01/19 07:10:29;;;;;;;10.27;7.13;;;;;;;;;;5068996;28;20202;-85
2024/01/19 07:12:59;;;;;;;10.80;7.37;;;;;;;;;;5068555;28;20348;-85
2024/01/19 07:15:26;;;;;;;8.93;6.57;;;;;;;;;;5052936;28;20230;-85
2024/01/19 07:17:55;;;;;;;9.43;6.70;;;;;;;;;;5052999;28;20251;-84
2024/01/19 07:20:30;;;;;;;10.50;7.27;;;;;;;;;;5057044;28;20203;-86
2024/01/19 07:23:13;;;;;;;7.20;6.47;;;;;;;;;;5053203;28;20203;-86
2024/01/19 07:25:41;;;;;;;18.07;10.10;;;;;;;;;;5052350;28;20192;-86
2024/01/19 07:28:09;;;;;;;16.97;10.03;;;;;;;;;;5053721;28;20211;-85
2024/01/19 07:30:39;;;;;;;11.13;8.93;;;;;;;;;;5052067;28;20579;-87
2024/01/19 07:33:06;;;;;;;12.10;8.60;;;;;;;;;;5051846;28;20200;-86
2024/01/19 07:35:34;;;;;;;12.17;8.67;;;;;;;;;;5053023;28;20239;-87
2024/01/19 07:38:03;;;;;;;13.93;9.60;;;;;;;;;;5053035;28;20204;-87
2024/01/19 07:40:35;;;;;;;14.10;9.13;;;;;;;;;;5053155;28;20198;-86
2024/01/19 07:43:03;;;;;;;10.10;7.87;;;;;;;;;;5057587;28;20211;-85
2024/01/19 07:45:30;;;;;;;13.17;7.90;;;;;;;;;;5058843;28;20209;-85
2024/01/19 07:47:58;;;;;;;14.53;9.33;;;;;;;;;;5064091;28;20215;-87
2024/01/19 07:50:25;;;;;;;13.57;8.10;;;;;;;;;;5073325;28;20191;-86
2024/01/19 07:52:56;;;;;;;11.87;7.70;;;;;;;;;;5066282;28;20210;-86
2024/01/19 07:55:24;;;;;;;13.17;8.37;;;;;;;;;;5056388;28;20307;-86
2024/01/19 07:57:52;;;;;;;10.27;7.50;;;;;;;;;;5055909;28;20293;-85
2024/01/19 08:00:20;;;;;;;13.20;7.53;;;;;;;;;;5055491;28;20197;-86
2024/01/19 08:02:50;;;;;;;10.27;7.00;;;;;;;;;;5055282;28;20201;-86
2024/01/19 08:05:20;;;;;;;9.73;7.50;;;;;;;;;;5057714;28;20604;-86
2024/01/19 08:07:49;;;;;;;8.43;6.83;;;;;;;;;;5055464;28;20214;-85
2024/01/19 08:10:18;;;;;;;9.83;6.23;;;;;;;;;;5054819;28;20215;-85
2024/01/19 08:12:47;;;;;;;14.47;6.73;;;;;;;;;;5054722;28;20204;-86
2024/01/19 08:15:16;;;;;;;7.60;6.80;;;;;;;;;;5055023;28;20270;-86
2024/01/19 08:17:44;;;;;;;14.50;6.80;;;;;;;;;;5054735;28;20640;-86
2024/01/19 08:20:13;;;;;;;8.70;6.63;;;;;;;;;;5055923;28;20195;-86
2024/01/19 08:22:41;;;;;;;7.07;6.33;;;;;;;;;;5055750;28;20298;-85
2024/01/19 08:25:11;;;;;;;7.30;6.47;;;;;;;;;;5056019;28;20207;-85
2024/01/19 08:27:41;;;;;;;10.07;6.93;;;;;;;;;;5058908;28;20668;-86
2024/01/19 08:30:11;;;;;;;6.83;5.43;;;;;;;;;;5067475;28;20192;-85
2024/01/19 08:32:39;;;;;;;6.10;5.37;;;;;;;;;;5066447;28;20264;-86
2024/01/19 08:35:10;;;;;;;7.83;5.53;;;;;;;;;;5074657;28;20227;-88
2024/01/19 08:37:38;;;;;;;6.27;4.93;;;;;;;;;;5066448;28;20231;-86
2024/01/19 08:40:15;;;;;;;10.57;6.93;;;;;;;;;;5060995;28;20281;-86
2024/01/19 08:42:42;;;;;;;6.67;6.07;;;;;;;;;;5058533;28;20209;-87
2024/01/19 08:45:14;;;;;;;6.47;3.97;;;;;;;;;;5055021;28;20225;-86
2024/01/19 08:47:43;;;;;;;3.70;3.40;;;;;;;;;;5053760;28;20710;-86
2024/01/19 08:50:24;;;;;;;3.27;3.07;;;;;;;;;;5058177;28;20207;-85
2024/01/19 08:52:58;;;;;;;5.05;3.92;;;;;;;;;;5068543;28;20197;-86
2024/01/19 08:55:27;;;;;;;5.00;3.08;;;;;;;;;;5054364;28;20366;-86
2024/01/19 08:57:54;;;;;;;3.53;3.22;;;;;;;;;;5054274;28;20586;-85
2024/01/19 09:00:23;;;;;;;2.75;2.55;;;;;;;;;;5054759;28;20231;-86
2024/01/19 09:02:50;;;;;;;3.17;2.88;;;;;;;;;;5053387;28;20222;-85
2024/01/19 09:05:17;;;;;;;3.90;2.67;;;;;;;;;;5054120;28;20205;-86
2024/01/19 09:07:45;;;;;;;4.35;2.35;;;;;;;;;;5053945;28;20659;-85
2024/01/19 09:10:21;;;;;;;5.55;2.60;;;;;;;;;;5050143;28;20233;-85
2024/01/19 09:12:49;;;;;;;3.75;2.60;;;;;;;;;;5042344;28;20204;-85
2024/01/19 09:15:17;;;;;;;3.50;3.03;;;;;;;;;;5052481;28;20228;-85
2024/01/19 09:17:49;;;;;;;2.78;2.55;;;;;;;;;;5039958;28;20206;-86
2024/01/19 09:20:17;;;;;;;3.55;3.10;;;;;;;;;;5041983;28;20656;-85
2024/01/19 09:22:46;;;;;;;4.78;3.15;;;;;;;;;;5052327;28;20203;-86
2024/01/19 09:25:15;;;;;;;6.32;2.65;;;;;;;;;;5039846;28;20294;-86
2024/01/19 09:27:43;;;;;;;2.30;2.20;;;;;;;;;;5053127;28;20254;-86
2024/01/19 09:30:11;;;;;;;3.30;3.00;;;;;;;;;;5036557;28;20194;-85
2024/01/19 09:32:40;;;;;;;2.92;2.70;;;;;;;;;;5032665;28;20208;-86
2024/01/19 09:35:10;;;;;;;5.70;2.80;;;;;;;;;;5033672;28;20228;-85
2024/01/19 09:37:38;;;;;;;2.60;2.40;;;;;;;;;;5033548;28;20282;-85
2024/01/19 09:40:06;;;;;;;2.90;2.70;;;;;;;;;;5032404;28;20261;-86
2024/01/19 09:42:34;;;;;;;3.13;2.93;;;;;;;;;;5033174;28;20225;-86
2024/01/19 09:45:03;;;;;;;2.77;2.57;;;;;;;;;;5033370;28;20205;-85
2024/01/19 09:47:33;;;;;;;3.80;2.63;;;;;;;;;;5032507;28;20238;-85
2024/01/19 09:50:04;;;;;;;8.40;3.10;;;;;;;;;;5032708;28;20643;-84
2024/01/19 09:52:43;;;;;;;2.60;2.40;;;;;;;;;;5033829;28;20685;-85
2024/01/19 09:55:12;;;;;;;4.40;3.05;;;;;;;;;;5025376;28;20762;-86
2024/01/19 09:57:44;;;;;;;2.70;2.60;;;;;;;;;;5052051;28;20678;-86
2024/01/19 10:00:12;;;;;;;4.20;3.80;;;;;;;;;;5052179;28;20587;-86
2024/01/19 10:02:43;;;;;;;6.72;2.85;;;;;;;;;;5052289;28;20218;-85
2024/01/19 10:05:12;;;;;;;4.32;2.58;;;;;;;;;;5036930;28;20219;-86
2024/01/19 10:07:44;;;;;;;2.85;2.65;;;;;;;;;;5046406;28;20209;-85
2024/01/19 10:10:11;;;;;;;3.55;3.25;;;;;;;;;;5042164;28;20598;-86
2024/01/19 10:12:58;;;;;;;5.72;3.30;;;;;;;;;;5051527;28;20209;-86
2024/01/19 10:15:25;;;;;;;4.68;3.17;;;;;;;;;;5035508;28;20242;-86
2024/01/19 10:17:54;;;;;;;3.67;3.38;;;;;;;;;;5032412;28;20286;-85
2024/01/19 10:20:21;;;;;;;3.75;3.35;;;;;;;;;;5032666;28;20203;-85
2024/01/19 10:22:50;;;;;;;3.90;3.28;;;;;;;;;;5037560;28;20198;-86
2024/01/19 10:25:18;;;;;;;11.13;3.83;;;;;;;;;;5037541;28;20208;-85
2024/01/19 10:27:48;;;;;;;11.48;4.18;;;;;;;;;;5029691;28;20192;-86
2024/01/19 10:30:21;;;;;;;4.77;4.07;;;;;;;;;;5050519;28;20196;-85
2024/01/19 10:32:51;;;;;;;7.30;4.18;;;;;;;;;;5049432;28;20280;-85
2024/01/19 10:35:21;;;;;;;3.40;2.97;;;;;;;;;;5036022;28;20616;-86
2024/01/19 10:37:49;;;;;;;3.15;2.33;;;;;;;;;;5044312;28;20642;-86
2024/01/19 10:40:17;;;;;;;5.82;2.40;;;;;;;;;;5037463;28;20197;-84
2024/01/19 10:42:47;;;;;;;2.28;1.70;;;;;;;;;;5045159;28;20263;-86
2024/01/19 10:45:16;;;;;;;5.18;4.10;;;;;;;;;;5042850;28;20201;-85
2024/01/19 10:47:43;;;;;;;4.05;3.67;;;;;;;;;;5053344;28;20196;-85
2024/01/19 10:50:13;;;;;;;5.75;3.80;;;;;;;;;;5056408;28;21294;-85
2024/01/19 10:52:41;;;;;;;5.07;3.45;;;;;;;;;;5047710;28;20310;-85
2024/01/19 10:55:19;;;;;;;3.17;2.35;;;;;;;;;;5032413;28;20724;-86
2024/01/19 10:57:50;;;;;;;1.02;1.02;;;;;;;;;;5027131;28;20209;-86
2024/01/19 11:00:20;;;;;;;5.10;3.25;;;;;;;;;;5037566;28;20234;-85
2024/01/19 11:02:49;;;;;;;3.47;1.48;;;;;;;;;;5032719;28;20252;-86
2024/01/19 11:05:17;;;;;;;2.60;1.10;;;;;;;;;;5040389;28;20254;-84
2024/01/19 11:07:44;;;;;;;6.75;1.50;;;;;;;;;;5048554;28;20205;-84
2024/01/19 11:10:15;;;;;;;0.95;0.80;;;;;;;;;;5045427;28;20213;-86
2024/01/19 11:12:48;;;;;;;4.43;1.73;;;;;;;;;;5039403;28;20230;-84
2024/01/19 11:15:21;;;;;;;2.20;1.77;;;;;;;;;;5039761;28;20231;-85
2024/01/19 11:17:49;;;;;;;2.70;1.55;;;;;;;;;;5042667;28;20277;-87
2024/01/19 11:20:20;;;;;;;1.20;1.10;;;;;;;;;;5045080;28;20195;-84
2024/01/19 11:22:48;;;;;;;0.85;0.60;;;;;;;;;;5031746;28;20234;-85
2024/01/19 11:25:19;;;;;;;3.00;1.17;;;;;;;;;;5049039;28;20206;-86
2024/01/19 11:27:52;;;;;;;2.42;1.05;;;;;;;;;;5041441;28;20216;-86
2024/01/19 11:30:28;;;;;;;2.08;0.73;;;;;;;;;;5044188;28;20203;-87
2024/01/19 11:32:56;;;;;;;1.95;0.80;;;;;;;;;;5057288;28;20239;-87
2024/01/19 11:35:48;;;;;;;1.25;1.15;;;;;;;;;;5044368;28;20253;-87
2024/01/19 11:38:34;;;;;;;9.32;1.88;;;;;;;;;;5035322;28;20609;-86
2024/01/19 11:41:02;;;;;;;1.83;1.73;;;;;;;;;;5038431;28;20261;-86
2024/01/19 11:43:42;;;;;;;0.95;0.65;;;;;;;;;;5049995;28;20703;-85
2024/01/19 11:46:12;;;;;;;2.08;0.80;;;;;;;;;;5048028;28;20333;-85
2024/01/19 11:48:44;;;;;;;0.95;0.85;;;;;;;;;;5037820;28;20198;-86
2024/01/19 11:51:28;;;;;;;1.10;0.80;;;;;;;;;;5035578;28;20202;-86
2024/01/19 11:53:56;;;;;;;0.80;0.73;;;;;;;;;;5045258;28;20265;-85
2024/01/19 11:56:24;;;;;;;2.75;0.57;;;;;;;;;;5056328;28;20237;-85
2024/01/19 11:58:53;;;;;;;0.88;0.88;;;;;;;;;;5038940;28;20223;-86
2024/01/19 12:01:22;;;;;;;1.48;0.60;;;;;;;;;;5048296;28;20462;-86
2024/01/19 12:03:52;;;;;;;1.73;1.05;;;;;;;;;;5047445;28;20244;-85
2024/01/19 12:06:20;;;;;;;2.85;0.82;;;;;;;;;;5041567;28;20196;-85
2024/01/19 12:09:05;;;;;;;1.23;0.50;;;;;;;;;;5050916;28;20723;-86
2024/01/19 12:11:33;;;;;;;1.48;0.65;;;;;;;;;;5042626;28;20205;-86
2024/01/19 12:14:03;;;;;;;0.52;0.52;;;;;;;;;;5054931;28;20204;-85
2024/01/19 12:16:35;;;;;;;0.70;0.60;;;;;;;;;;5055470;28;20225;-85
2024/01/19 12:19:02;;;;;;;1.27;0.50;;;;;;;;;;5049875;28;20262;-85
2024/01/19 12:21:31;;;;;;;0.70;0.20;;;;;;;;;;5043431;28;20249;-86
2024/01/19 12:23:58;;;;;;;2.42;0.40;;;;;;;;;;5054356;28;20622;-85
2024/01/19 12:26:26;;;;;;;0.73;0.73;;;;;;;;;;5054202;28;20234;-85
2024/01/19 12:28:54;;;;;;;2.83;0.90;;;;;;;;;;5034069;28;20618;-87
2024/01/19 12:31:26;;;;;;;0.55;0.45;;;;;;;;;;5041553;28;20596;-85
2024/01/19 12:33:56;;;;;;;2.03;0.43;;;;;;;;;;5052875;28;20665;-85
2024/01/19 12:36:24;;;;;;;1.02;0.60;;;;;;;;;;5047967;28;20728;-85
2024/01/19 12:39:03;;;;;;;1.08;0.43;;;;;;;;;;5045304;28;20801;-86
2024/01/19 12:41:34;;;;;;;1.85;0.63;;;;;;;;;;5052090;28;20307;-87
2024/01/19 12:44:02;;;;;;;2.17;0.52;;;;;;;;;;5040589;28;20246;-85
2024/01/19 12:46:30;;;;;;;2.17;0.55;;;;;;;;;;5053970;28;20263;-85
2024/01/19 12:49:00;;;;;;;0.50;0.50;;;;;;;;;;5055940;28;20223;-86
2024/01/19 12:51:27;;;;;;;1.20;0.32;;;;;;;;;;5051148;28;20671;-85
2024/01/19 12:53:55;;;;;;;0.75;0.60;;;;;;;;;;5046679;28;20429;-86
2024/01/19 12:56:25;;;;;;;1.30;0.43;;;;;;;;;;5053860;28;20579;-86
2024/01/19 12:58:55;;;;;;;1.42;0.50;;;;;;;;;;5044118;28;20706;-85
2024/01/19 13:01:22;;;;;;;0.73;0.60;;;;;;;;;;5047270;28;20720;-86
2024/01/19 13:03:57;;;;;;;2.05;0.57;;;;;;;;;;5041247;28;20623;-86
2024/01/19 13:06:27;;;;;;;3.33;0.52;;;;;;;;;;5041521;28;20281;-85
2024/01/19 13:08:54;;;;;;;2.67;0.50;;;;;;;;;;5037045;28;20702;-86
2024/01/19 13:11:23;;;;;;;1.60;0.43;;;;;;;;;;5045179;28;20229;-85
2024/01/19 13:14:00;;;;;;;0.30;0.30;;;;;;;;;;5043264;28;20269;-86
2024/01/19 13:16:27;;;;;;;3.33;0.55;;;;;;;;;;5052289;28;20240;-87
2024/01/19 13:19:00;;;;;;;0.57;0.57;;;;;;;;;;5037377;28;20230;-85
2024/01/19 13:21:31;;;;;;;1.05;0.63;;;;;;;;;;5052490;28;20225;-87
2024/01/19 13:24:00;;;;;;;3.78;0.43;;;;;;;;;;5040685;28;20702;-86
2024/01/19 13:26:31;;;;;;;2.38;0.98;;;;;;;;;;5034083;28;20676;-86
2024/01/19 13:28:59;;;;;;;1.45;0.82;;;;;;;;;;5048294;28;20221;-85
2024/01/19 13:31:29;;;;;;;1.58;0.70;;;;;;;;;;5041878;28;20387;-85
2024/01/19 13:33:57;;;;;;;3.55;0.55;;;;;;;;;;5041878;28;20261;-86
2024/01/19 13:36:25;;;;;;;0.73;0.63;;;;;;;;;;5048679;28;20241;-87
2024/01/19 13:39:00;;;;;;;1.17;0.40;;;;;;;;;;5037122;28;20255;-86
2024/01/19 13:41:28;;;;;;;1.38;0.63;;;;;;;;;;5044260;28;20591;-86
2024/01/19 13:43:56;;;;;;;1.23;1.20;;;;;;;;;;5042595;28;20233;-86
2024/01/19 13:46:25;;;;;;;1.63;0.63;;;;;;;;;;5051557;28;20256;-86
2024/01/19 13:48:53;;;;;;;1.42;0.63;;;;;;;;;;5040570;28;20255;-84
2024/01/19 13:51:20;;;;;;;0.30;0.30;;;;;;;;;;5060303;28;20262;-84
2024/01/19 13:53:49;;;;;;;0.55;0.55;;;;;;;;;;5061445;28;20240;-86
2024/01/19 13:56:17;;;;;;;0.90;0.40;;;;;;;;;;5040956;28;20246;-86
2024/01/19 13:58:47;;;;;;;0.95;0.63;;;;;;;;;;5036415;28;21318;-85
2024/01/19 14:01:17;;;;;;;0.98;0.50;;;;;;;;;;5045095;28;20233;-86
2024/01/19 14:03:45;;;;;;;0.40;0.40;;;;;;;;;;5033690;28;20236;-86
2024/01/19 14:06:13;;;;;;;2.00;0.77;;;;;;;;;;5034115;28;20240;-86
2024/01/19 14:08:41;;;;;;;2.83;0.85;;;;;;;;;;5032576;28;20610;-87
2024/01/19 14:11:22;;;;;;;3.72;1.23;;;;;;;;;;5032136;28;20224;-85
2024/01/19 14:13:57;;;;;;;1.20;0.70;;;;;;;;;;5043669;28;20225;-86
2024/01/19 14:16:27;;;;;;;0.68;0.68;;;;;;;;;;5037781;28;20239;-86
2024/01/19 14:18:58;;;;;;;3.63;0.60;;;;;;;;;;5056159;28;20229;-86
2024/01/19 14:21:25;;;;;;;2.30;1.20;;;;;;;;;;5057180;28;20679;-86
2024/01/19 14:23:53;;;;;;;1.35;0.57;;;;;;;;;;5065341;28;20257;-85
2024/01/19 14:26:23;;;;;;;3.70;1.63;;;;;;;;;;5056688;28;20655;-86
2024/01/19 14:28:53;;;;;;;6.00;1.48;;;;;;;;;;5049746;28;20219;-87
2024/01/19 14:31:22;;;;;;;2.75;1.08;;;;;;;;;;5039360;28;20854;-86
2024/01/19 14:33:51;;;;;;;4.00;1.30;;;;;;;;;;5052040;28;20290;-86
2024/01/19 14:36:22;;;;;;;0.80;0.80;;;;;;;;;;5036474;28;20655;-85
2024/01/19 14:38:58;;;;;;;1.58;0.88;;;;;;;;;;5051812;28;20307;-86
2024/01/19 14:41:29;;;;;;;1.33;1.23;;;;;;;;;;5044766;28;20483;-85
2024/01/19 14:44:09;;;;;;;1.08;0.80;;;;;;;;;;5039674;28;20235;-86
2024/01/19 14:46:42;;;;;;;2.83;0.80;;;;;;;;;;5049879;28;20717;-85
2024/01/19 14:49:14;;;;;;;1.80;0.57;;;;;;;;;;5052781;28;20209;-86
2024/01/19 14:51:42;;;;;;;0.82;0.82;;;;;;;;;;5042599;28;20231;-86
2024/01/19 14:54:14;;;;;;;1.48;0.85;;;;;;;;;;5047622;28;20242;-85
2024/01/19 14:56:44;;;;;;;2.38;1.73;;;;;;;;;;5051299;28;20223;-86
2024/01/19 14:59:18;;;;;;;2.13;0.90;;;;;;;;;;5038989;28;20222;-86
2024/01/19 15:01:55;;;;;;;2.67;1.17;;;;;;;;;;5044869;28;20251;-86
2024/01/19 15:04:28;;;;;;;1.17;0.73;;;;;;;;;;5052796;28;20217;-86
2024/01/19 15:06:58;;;;;;;2.88;0.30;;;;;;;;;;5051704;28;20217;-86
2024/01/19 15:09:30;;;;;;;4.38;0.60;;;;;;;;;;5037499;28;20230;-86